sensor_id;sensor_type;location;lat;lon;timestamp;P1;durP1;ratioP1;P2;durP2;ratioP2
13204;SDS011;6667;52.634;9.226;2023-07-29T07:04:32;5.93;;;5.30;;
13204;SDS011;6667;52.634;9.226;2023-07-29T07:06:59;6.72;;;6.05;;
13204;SDS011;6667;52.634;9.226;2023-07-29T07:09:26;8.98;;;6.22;;
13204;SDS011;6667;52.634;9.226;2023-07-29T07:11:54;7.93;;;5.78;;
13204;SDS011;6667;52.634;9.226;2023-07-29T07:14:21;7.63;;;5.65;;
13204;SDS011;6667;52.634;9.226;2023-07-29T07:20:13;7.07;;;6.20;;
13204;SDS011;6667;52.634;9.226;2023-07-29T07:22:54;7.88;;;6.88;;
13204;SDS011;6667;52.634;9.226;2023-07-29T07:25:21;9.48;;;7.13;;
13204;SDS011;6667;52.634;9.226;2023-07-29T07:28:06;9.00;;;7.50;;
13204;SDS011;6667;52.634;9.226;2023-07-29T07:30:54;8.68;;;7.78;;
13204;SDS011;6667;52.634;9.226;2023-07-29T07:33:29;10.23;;;8.45;;
13204;SDS011;6667;52.634;9.226;2023-07-29T07:36:09;11.40;;;9.48;;
13204;SDS011;6667;52.634;9.226;2023-07-29T07:38:49;14.35;;;9.65;;
13204;SDS011;6667;52.634;9.226;2023-07-29T07:41:40;10.55;;;9.43;;
13204;SDS011;6667;52.634;9.226;2023-07-29T08:00:48;10.50;;;9.50;;
13204;SDS011;6667;52.634;9.226;2023-07-29T08:16:11;12.30;;;10.85;;
13204;SDS011;6667;52.634;9.226;2023-07-29T08:21:27;13.60;;;10.85;;
13204;SDS011;6667;52.634;9.226;2023-07-29T08:23:57;11.82;;;10.63;;
13204;SDS011;6667;52.634;9.226;2023-07-29T08:26:48;14.05;;;11.70;;
13204;SDS011;6667;52.634;9.226;2023-07-29T08:29:14;14.90;;;13.38;;
13204;SDS011;6667;52.634;9.226;2023-07-29T08:31:43;12.85;;;11.55;;
13204;SDS011;6667;52.634;9.226;2023-07-29T08:34:16;14.25;;;12.05;;
13204;SDS011;6667;52.634;9.226;2023-07-29T08:36:43;13.27;;;11.65;;
13204;SDS011;6667;52.634;9.226;2023-07-29T08:39:10;13.82;;;12.43;;
13204;SDS011;6667;52.634;9.226;2023-07-29T08:41:49;15.40;;;12.02;;
13204;SDS011;6667;52.634;9.226;2023-07-29T08:44:44;14.20;;;12.40;;
13204;SDS011;6667;52.634;9.226;2023-07-29T08:53:16;14.60;;;11.77;;
13204;SDS011;6667;52.634;9.226;2023-07-29T08:55:43;13.05;;;11.40;;
13204;SDS011;6667;52.634;9.226;2023-07-29T08:58:11;12.38;;;11.07;;
13204;SDS011;6667;52.634;9.226;2023-07-29T09:00:47;13.30;;;11.70;;
13204;SDS011;6667;52.634;9.226;2023-07-29T09:03:15;12.90;;;11.60;;
13204;SDS011;6667;52.634;9.226;2023-07-29T09:05:42;14.60;;;12.07;;
13204;SDS011;6667;52.634;9.226;2023-07-29T09:08:10;16.23;;;13.07;;
13204;SDS011;6667;52.634;9.226;2023-07-29T09:10:37;14.00;;;12.10;;
13204;SDS011;6667;52.634;9.226;2023-07-29T09:13:04;15.27;;;11.68;;
13204;SDS011;6667;52.634;9.226;2023-07-29T09:15:47;11.88;;;10.75;;
13204;SDS011;6667;52.634;9.226;2023-07-29T09:18:19;12.07;;;10.85;;
13204;SDS011;6667;52.634;9.226;2023-07-29T09:20:47;10.90;;;9.50;;
13204;SDS011;6667;52.634;9.226;2023-07-29T09:23:15;10.77;;;9.52;;
13204;SDS011;6667;52.634;9.226;2023-07-29T09:25:42;11.32;;;8.93;;
13204;SDS011;6667;52.634;9.226;2023-07-29T09:28:12;10.40;;;8.98;;
13204;SDS011;6667;52.634;9.226;2023-07-29T09:30:41;15.90;;;10.88;;
13204;SDS011;6667;52.634;9.226;2023-07-29T09:33:09;15.75;;;8.32;;
13204;SDS011;6667;52.634;9.226;2023-07-29T09:35:38;10.55;;;6.50;;
13204;SDS011;6667;52.634;9.226;2023-07-29T09:38:05;7.68;;;6.18;;
13204;SDS011;6667;52.634;9.226;2023-07-29T09:40:40;8.85;;;6.35;;
13204;SDS011;6667;52.634;9.226;2023-07-29T09:43:10;8.00;;;6.93;;
13204;SDS011;6667;52.634;9.226;2023-07-29T09:45:37;9.40;;;7.00;;
13204;SDS011;6667;52.634;9.226;2023-07-29T09:48:10;8.20;;;7.40;;
13204;SDS011;6667;52.634;9.226;2023-07-29T09:51:01;11.02;;;8.18;;
13204;SDS011;6667;52.634;9.226;2023-07-29T09:53:38;9.65;;;8.55;;
13204;SDS011;6667;52.634;9.226;2023-07-29T09:56:07;9.90;;;8.80;;
13204;SDS011;6667;52.634;9.226;2023-07-29T09:58:34;10.48;;;9.23;;
13204;SDS011;6667;52.634;9.226;2023-07-29T10:01:03;11.88;;;10.20;;
13204;SDS011;6667;52.634;9.226;2023-07-29T10:09:31;10.68;;;9.57;;
13204;SDS011;6667;52.634;9.226;2023-07-29T10:11:59;10.60;;;9.48;;
13204;SDS011;6667;52.634;9.226;2023-07-29T10:14:26;11.27;;;9.38;;
13204;SDS011;6667;52.634;9.226;2023-07-29T10:16:54;10.63;;;9.52;;
13204;SDS011;6667;52.634;9.226;2023-07-29T10:21:52;12.23;;;8.90;;
13204;SDS011;6667;52.634;9.226;2023-07-29T10:24:24;11.50;;;9.10;;
13204;SDS011;6667;52.634;9.226;2023-07-29T10:26:58;9.73;;;8.35;;
13204;SDS011;6667;52.634;9.226;2023-07-29T10:49:47;6.88;;;6.15;;
13204;SDS011;6667;52.634;9.226;2023-07-29T10:52:27;6.45;;;5.85;;
13204;SDS011;6667;52.634;9.226;2023-07-29T10:54:55;7.43;;;6.40;;
13204;SDS011;6667;52.634;9.226;2023-07-29T10:57:30;5.47;;;5.03;;
13204;SDS011;6667;52.634;9.226;2023-07-29T10:59:58;5.40;;;4.30;;
13204;SDS011;6667;52.634;9.226;2023-07-29T11:02:28;5.28;;;4.13;;
13204;SDS011;6667;52.634;9.226;2023-07-29T11:04:57;5.03;;;4.53;;
13204;SDS011;6667;52.634;9.226;2023-07-29T11:07:25;4.20;;;3.65;;
13204;SDS011;6667;52.634;9.226;2023-07-29T11:09:54;4.07;;;3.72;;
13204;SDS011;6667;52.634;9.226;2023-07-29T11:12:33;3.65;;;3.35;;
13204;SDS011;6667;52.634;9.226;2023-07-29T11:15:04;2.05;;;1.95;;
13204;SDS011;6667;52.634;9.226;2023-07-29T11:17:39;2.13;;;1.50;;
13204;SDS011;6667;52.634;9.226;2023-07-29T11:20:09;1.52;;;1.30;;
13204;SDS011;6667;52.634;9.226;2023-07-29T11:22:36;3.05;;;1.42;;
13204;SDS011;6667;52.634;9.226;2023-07-29T11:25:04;1.20;;;1.20;;
13204;SDS011;6667;52.634;9.226;2023-07-29T11:27:32;1.30;;;1.20;;
13204;SDS011;6667;52.634;9.226;2023-07-29T11:29:58;0.98;;;0.98;;
13204;SDS011;6667;52.634;9.226;2023-07-29T11:32:27;1.45;;;1.17;;
13204;SDS011;6667;52.634;9.226;2023-07-29T11:34:54;1.27;;;0.98;;
13204;SDS011;6667;52.634;9.226;2023-07-29T11:37:22;0.80;;;0.80;;
13204;SDS011;6667;52.634;9.226;2023-07-29T11:39:48;0.98;;;0.70;;
13204;SDS011;6667;52.634;9.226;2023-07-29T11:42:16;0.88;;;0.88;;
13204;SDS011;6667;52.634;9.226;2023-07-29T11:44:43;0.68;;;0.68;;
13204;SDS011;6667;52.634;9.226;2023-07-29T11:47:10;1.35;;;1.02;;
13204;SDS011;6667;52.634;9.226;2023-07-29T11:49:38;1.75;;;0.90;;
13204;SDS011;6667;52.634;9.226;2023-07-29T11:52:06;1.15;;;0.90;;
13204;SDS011;6667;52.634;9.226;2023-07-29T11:54:36;0.95;;;0.95;;
13204;SDS011;6667;52.634;9.226;2023-07-29T11:57:03;0.93;;;0.80;;
13204;SDS011;6667;52.634;9.226;2023-07-29T11:59:32;0.93;;;0.93;;
13204;SDS011;6667;52.634;9.226;2023-07-29T12:02:00;1.38;;;0.82;;
13204;SDS011;6667;52.634;9.226;2023-07-29T12:04:27;1.65;;;0.75;;
13204;SDS011;6667;52.634;9.226;2023-07-29T12:06:54;1.02;;;0.82;;
13204;SDS011;6667;52.634;9.226;2023-07-29T12:09:22;2.15;;;1.58;;
13204;SDS011;6667;52.634;9.226;2023-07-29T12:11:50;2.95;;;1.30;;
13204;SDS011;6667;52.634;9.226;2023-07-29T12:14:17;1.02;;;0.93;;
13204;SDS011;6667;52.634;9.226;2023-07-29T12:16:44;0.77;;;0.77;;
13204;SDS011;6667;52.634;9.226;2023-07-29T12:19:11;1.45;;;0.82;;
13204;SDS011;6667;52.634;9.226;2023-07-29T12:21:39;0.88;;;0.80;;
13204;SDS011;6667;52.634;9.226;2023-07-29T12:24:07;1.30;;;1.20;;
13204;SDS011;6667;52.634;9.226;2023-07-29T12:26:35;4.75;;;1.00;;
13204;SDS011;6667;52.634;9.226;2023-07-29T12:29:11;0.70;;;0.70;;
13204;SDS011;6667;52.634;9.226;2023-07-29T12:31:38;2.10;;;1.10;;
13204;SDS011;6667;52.634;9.226;2023-07-29T12:34:05;1.10;;;1.00;;
13204;SDS011;6667;52.634;9.226;2023-07-29T12:36:42;1.73;;;1.10;;
13204;SDS011;6667;52.634;9.226;2023-07-29T12:39:15;1.10;;;0.95;;
13204;SDS011;6667;52.634;9.226;2023-07-29T12:41:43;1.58;;;1.10;;
13204;SDS011;6667;52.634;9.226;2023-07-29T12:44:11;1.15;;;0.93;;
13204;SDS011;6667;52.634;9.226;2023-07-29T12:46:38;2.78;;;1.20;;
13204;SDS011;6667;52.634;9.226;2023-07-29T12:49:04;1.30;;;1.10;;
13204;SDS011;6667;52.634;9.226;2023-07-29T12:51:31;0.68;;;0.68;;
13204;SDS011;6667;52.634;9.226;2023-07-29T12:53:58;2.33;;;1.20;;
13204;SDS011;6667;52.634;9.226;2023-07-29T12:56:25;1.17;;;0.68;;
13204;SDS011;6667;52.634;9.226;2023-07-29T12:58:52;0.98;;;0.80;;
13204;SDS011;6667;52.634;9.226;2023-07-29T13:01:20;1.55;;;1.20;;
13204;SDS011;6667;52.634;9.226;2023-07-29T13:03:47;1.40;;;0.80;;
13204;SDS011;6667;52.634;9.226;2023-07-29T13:06:14;2.17;;;1.00;;
13204;SDS011;6667;52.634;9.226;2023-07-29T13:08:41;0.80;;;0.80;;
13204;SDS011;6667;52.634;9.226;2023-07-29T13:11:09;2.45;;;0.88;;
13204;SDS011;6667;52.634;9.226;2023-07-29T13:13:36;0.90;;;0.88;;
13204;SDS011;6667;52.634;9.226;2023-07-29T13:16:03;1.45;;;1.00;;
13204;SDS011;6667;52.634;9.226;2023-07-29T13:18:32;1.50;;;1.02;;
13204;SDS011;6667;52.634;9.226;2023-07-29T13:20:59;1.40;;;1.08;;
13204;SDS011;6667;52.634;9.226;2023-07-29T13:23:26;1.00;;;0.80;;
13204;SDS011;6667;52.634;9.226;2023-07-29T13:25:53;1.25;;;0.93;;
13204;SDS011;6667;52.634;9.226;2023-07-29T13:28:19;2.60;;;1.05;;
13204;SDS011;6667;52.634;9.226;2023-07-29T13:30:46;1.35;;;0.95;;
13204;SDS011;6667;52.634;9.226;2023-07-29T13:33:13;3.47;;;1.25;;
13204;SDS011;6667;52.634;9.226;2023-07-29T13:35:41;2.67;;;0.90;;
13204;SDS011;6667;52.634;9.226;2023-07-29T13:38:08;1.65;;;1.20;;
13204;SDS011;6667;52.634;9.226;2023-07-29T13:40:36;1.60;;;1.00;;
13204;SDS011;6667;52.634;9.226;2023-07-29T13:43:02;1.52;;;0.90;;
13204;SDS011;6667;52.634;9.226;2023-07-29T13:45:29;2.08;;;0.70;;
13204;SDS011;6667;52.634;9.226;2023-07-29T13:47:56;0.77;;;0.68;;
13204;SDS011;6667;52.634;9.226;2023-07-29T13:50:23;1.20;;;0.90;;
13204;SDS011;6667;52.634;9.226;2023-07-29T13:52:51;1.08;;;0.98;;
13204;SDS011;6667;52.634;9.226;2023-07-29T13:55:21;1.00;;;0.90;;
13204;SDS011;6667;52.634;9.226;2023-07-29T13:58:18;0.65;;;0.65;;
13204;SDS011;6667;52.634;9.226;2023-07-29T14:00:44;2.17;;;0.85;;
13204;SDS011;6667;52.634;9.226;2023-07-29T14:03:16;1.10;;;0.90;;
13204;SDS011;6667;52.634;9.226;2023-07-29T14:05:59;1.42;;;0.80;;
13204;SDS011;6667;52.634;9.226;2023-07-29T14:08:27;1.88;;;0.80;;
13204;SDS011;6667;52.634;9.226;2023-07-29T14:10:54;0.85;;;0.73;;
13204;SDS011;6667;52.634;9.226;2023-07-29T14:13:21;0.75;;;0.73;;
13204;SDS011;6667;52.634;9.226;2023-07-29T14:15:47;1.98;;;0.85;;
13204;SDS011;6667;52.634;9.226;2023-07-29T14:18:14;1.58;;;0.93;;
13204;SDS011;6667;52.634;9.226;2023-07-29T14:20:41;0.80;;;0.70;;
13204;SDS011;6667;52.634;9.226;2023-07-29T14:23:08;1.02;;;0.88;;
13204;SDS011;6667;52.634;9.226;2023-07-29T14:25:36;1.33;;;0.90;;
13204;SDS011;6667;52.634;9.226;2023-07-29T14:28:02;0.77;;;0.75;;
13204;SDS011;6667;52.634;9.226;2023-07-29T14:30:29;1.35;;;0.70;;
13204;SDS011;6667;52.634;9.226;2023-07-29T14:32:56;1.42;;;0.90;;
13204;SDS011;6667;52.634;9.226;2023-07-29T14:35:23;1.17;;;0.75;;
13204;SDS011;6667;52.634;9.226;2023-07-29T14:37:50;1.70;;;0.98;;
13204;SDS011;6667;52.634;9.226;2023-07-29T14:40:16;1.92;;;1.05;;
13204;SDS011;6667;52.634;9.226;2023-07-29T14:42:44;2.45;;;1.10;;
13204;SDS011;6667;52.634;9.226;2023-07-29T14:45:11;0.70;;;0.70;;
13204;SDS011;6667;52.634;9.226;2023-07-29T14:47:38;1.08;;;0.90;;
13204;SDS011;6667;52.634;9.226;2023-07-29T14:50:05;1.30;;;1.20;;
13204;SDS011;6667;52.634;9.226;2023-07-29T14:52:32;0.90;;;0.90;;
13204;SDS011;6667;52.634;9.226;2023-07-29T14:54:58;1.10;;;1.00;;
13204;SDS011;6667;52.634;9.226;2023-07-29T14:57:25;1.27;;;1.17;;
13204;SDS011;6667;52.634;9.226;2023-07-29T14:59:53;1.40;;;1.30;;
13204;SDS011;6667;52.634;9.226;2023-07-29T15:02:20;1.20;;;1.10;;
13204;SDS011;6667;52.634;9.226;2023-07-29T15:04:47;1.25;;;1.10;;
13204;SDS011;6667;52.634;9.226;2023-07-29T15:07:14;1.83;;;0.90;;
13204;SDS011;6667;52.634;9.226;2023-07-29T15:09:41;1.50;;;1.17;;
13204;SDS011;6667;52.634;9.226;2023-07-29T15:12:07;1.35;;;1.25;;
13204;SDS011;6667;52.634;9.226;2023-07-29T15:14:34;1.30;;;1.20;;
13204;SDS011;6667;52.634;9.226;2023-07-29T15:17:02;1.60;;;1.50;;
13204;SDS011;6667;52.634;9.226;2023-07-29T15:19:29;1.35;;;1.25;;
13204;SDS011;6667;52.634;9.226;2023-07-29T15:21:56;1.50;;;1.40;;
13204;SDS011;6667;52.634;9.226;2023-07-29T15:24:23;1.42;;;1.20;;
13204;SDS011;6667;52.634;9.226;2023-07-29T15:26:49;3.03;;;1.33;;
13204;SDS011;6667;52.634;9.226;2023-07-29T15:29:16;1.40;;;1.30;;
13204;SDS011;6667;52.634;9.226;2023-07-29T15:31:43;1.40;;;1.30;;
13204;SDS011;6667;52.634;9.226;2023-07-29T15:34:11;1.63;;;1.10;;
13204;SDS011;6667;52.634;9.226;2023-07-29T15:36:37;1.42;;;1.10;;
13204;SDS011;6667;52.634;9.226;2023-07-29T15:39:04;1.40;;;1.30;;
13204;SDS011;6667;52.634;9.226;2023-07-29T15:41:31;1.63;;;1.35;;
13204;SDS011;6667;52.634;9.226;2023-07-29T15:43:59;1.25;;;1.15;;
13204;SDS011;6667;52.634;9.226;2023-07-29T15:46:25;1.40;;;1.30;;
13204;SDS011;6667;52.634;9.226;2023-07-29T15:48:52;3.85;;;1.40;;
13204;SDS011;6667;52.634;9.226;2023-07-29T15:51:21;1.48;;;1.38;;
13204;SDS011;6667;52.634;9.226;2023-07-29T15:53:48;1.20;;;1.10;;
13204;SDS011;6667;52.634;9.226;2023-07-29T15:56:15;2.92;;;1.52;;
13204;SDS011;6667;52.634;9.226;2023-07-29T15:58:41;1.73;;;1.63;;
13204;SDS011;6667;52.634;9.226;2023-07-29T16:01:08;1.50;;;1.15;;
13204;SDS011;6667;52.634;9.226;2023-07-29T16:03:35;1.52;;;1.27;;
13204;SDS011;6667;52.634;9.226;2023-07-29T16:06:02;2.10;;;1.20;;
13204;SDS011;6667;52.634;9.226;2023-07-29T16:08:30;1.30;;;1.20;;
13204;SDS011;6667;52.634;9.226;2023-07-29T16:10:57;2.17;;;1.40;;
13204;SDS011;6667;52.634;9.226;2023-07-29T16:13:24;1.92;;;1.10;;
13204;SDS011;6667;52.634;9.226;2023-07-29T16:15:50;1.98;;;1.00;;
13204;SDS011;6667;52.634;9.226;2023-07-29T16:18:17;2.35;;;1.25;;
13204;SDS011;6667;52.634;9.226;2023-07-29T16:20:44;1.45;;;1.35;;
13204;SDS011;6667;52.634;9.226;2023-07-29T16:23:11;2.50;;;1.35;;
13204;SDS011;6667;52.634;9.226;2023-07-29T16:25:39;1.30;;;1.02;;
13204;SDS011;6667;52.634;9.226;2023-07-29T16:28:06;1.20;;;1.10;;
13204;SDS011;6667;52.634;9.226;2023-07-29T16:30:33;1.02;;;0.93;;
13204;SDS011;6667;52.634;9.226;2023-07-29T16:33:00;1.17;;;1.08;;
13204;SDS011;6667;52.634;9.226;2023-07-29T16:35:27;1.65;;;1.35;;
13204;SDS011;6667;52.634;9.226;2023-07-29T16:37:54;1.40;;;1.08;;
13204;SDS011;6667;52.634;9.226;2023-07-29T16:40:22;1.67;;;1.27;;
13204;SDS011;6667;52.634;9.226;2023-07-29T16:42:50;2.60;;;1.63;;
13204;SDS011;6667;52.634;9.226;2023-07-29T16:45:17;1.85;;;1.00;;
13204;SDS011;6667;52.634;9.226;2023-07-29T16:47:44;3.53;;;1.45;;
13204;SDS011;6667;52.634;9.226;2023-07-29T16:50:10;1.60;;;0.95;;
13204;SDS011;6667;52.634;9.226;2023-07-29T16:52:37;1.27;;;0.95;;
13204;SDS011;6667;52.634;9.226;2023-07-29T16:55:06;1.70;;;1.60;;
13204;SDS011;6667;52.634;9.226;2023-07-29T16:57:33;2.78;;;1.60;;
13204;SDS011;6667;52.634;9.226;2023-07-29T17:00:01;2.22;;;1.13;;
13204;SDS011;6667;52.634;9.226;2023-07-29T17:02:29;2.53;;;1.20;;
13204;SDS011;6667;52.634;9.226;2023-07-29T17:04:56;1.33;;;1.10;;
13204;SDS011;6667;52.634;9.226;2023-07-29T17:07:26;1.85;;;1.40;;
13204;SDS011;6667;52.634;9.226;2023-07-29T17:09:52;1.33;;;1.23;;
13204;SDS011;6667;52.634;9.226;2023-07-29T17:12:19;1.02;;;0.98;;
13204;SDS011;6667;52.634;9.226;2023-07-29T17:14:46;1.15;;;1.05;;
13204;SDS011;6667;52.634;9.226;2023-07-29T17:17:15;1.52;;;0.90;;
13204;SDS011;6667;52.634;9.226;2023-07-29T17:19:42;1.40;;;1.30;;
13204;SDS011;6667;52.634;9.226;2023-07-29T17:22:09;1.25;;;0.90;;
13204;SDS011;6667;52.634;9.226;2023-07-29T17:24:36;1.08;;;0.98;;
13204;SDS011;6667;52.634;9.226;2023-07-29T17:27:03;1.38;;;1.27;;
13204;SDS011;6667;52.634;9.226;2023-07-29T17:29:30;1.10;;;1.00;;
13204;SDS011;6667;52.634;9.226;2023-07-29T17:31:57;1.27;;;1.17;;
13204;SDS011;6667;52.634;9.226;2023-07-29T17:34:25;1.63;;;1.23;;
13204;SDS011;6667;52.634;9.226;2023-07-29T17:36:52;0.90;;;0.90;;
13204;SDS011;6667;52.634;9.226;2023-07-29T17:39:19;1.88;;;1.45;;
13204;SDS011;6667;52.634;9.226;2023-07-29T17:44:22;0.98;;;0.98;;
13204;SDS011;6667;52.634;9.226;2023-07-29T17:47:16;1.15;;;0.73;;
13204;SDS011;6667;52.634;9.226;2023-07-29T17:50:32;1.70;;;0.77;;
13204;SDS011;6667;52.634;9.226;2023-07-29T17:53:37;0.85;;;0.85;;
13204;SDS011;6667;52.634;9.226;2023-07-29T17:56:38;4.65;;;1.52;;
13204;SDS011;6667;52.634;9.226;2023-07-29T17:59:31;1.35;;;0.90;;
13204;SDS011;6667;52.634;9.226;2023-07-29T18:02:09;1.15;;;1.10;;
13204;SDS011;6667;52.634;9.226;2023-07-29T18:04:57;1.10;;;1.00;;
13204;SDS011;6667;52.634;9.226;2023-07-29T18:07:42;0.93;;;0.93;;
13204;SDS011;6667;52.634;9.226;2023-07-29T18:10:58;0.95;;;0.82;;
13204;SDS011;6667;52.634;9.226;2023-07-29T18:13:46;1.13;;;0.77;;
13204;SDS011;6667;52.634;9.226;2023-07-29T18:29:47;1.33;;;1.23;;
13204;SDS011;6667;52.634;9.226;2023-07-29T18:33:06;0.93;;;0.90;;
13204;SDS011;6667;52.634;9.226;2023-07-29T18:36:14;1.15;;;1.05;;
13204;SDS011;6667;52.634;9.226;2023-07-29T18:38:47;1.38;;;0.98;;
13204;SDS011;6667;52.634;9.226;2023-07-29T18:41:23;1.08;;;0.80;;
13204;SDS011;6667;52.634;9.226;2023-07-29T18:44:00;1.55;;;1.02;;
13204;SDS011;6667;52.634;9.226;2023-07-29T18:46:40;1.30;;;1.00;;
13204;SDS011;6667;52.634;9.226;2023-07-29T18:49:13;1.50;;;1.00;;
13204;SDS011;6667;52.634;9.226;2023-07-29T18:51:49;1.98;;;0.85;;
13204;SDS011;6667;52.634;9.226;2023-07-29T18:54:18;2.15;;;1.00;;
13204;SDS011;6667;52.634;9.226;2023-07-29T18:56:54;0.98;;;0.80;;
13204;SDS011;6667;52.634;9.226;2023-07-29T18:59:34;2.42;;;0.80;;
13204;SDS011;6667;52.634;9.226;2023-07-29T19:02:07;1.10;;;1.00;;
13204;SDS011;6667;52.634;9.226;2023-07-29T19:04:35;0.93;;;0.90;;
13204;SDS011;6667;52.634;9.226;2023-07-29T19:07:07;1.88;;;0.90;;
13204;SDS011;6667;52.634;9.226;2023-07-29T19:09:43;1.52;;;1.13;;
13204;SDS011;6667;52.634;9.226;2023-07-29T19:12:13;1.77;;;0.93;;
13204;SDS011;6667;52.634;9.226;2023-07-29T19:14:45;0.88;;;0.88;;
13204;SDS011;6667;52.634;9.226;2023-07-29T19:17:21;1.40;;;1.10;;
13204;SDS011;6667;52.634;9.226;2023-07-29T19:19:52;1.15;;;1.05;;
13204;SDS011;6667;52.634;9.226;2023-07-29T19:22:22;2.88;;;1.40;;
13204;SDS011;6667;52.634;9.226;2023-07-29T19:24:51;1.25;;;1.00;;
13204;SDS011;6667;52.634;9.226;2023-07-29T19:27:18;1.50;;;0.95;;
13204;SDS011;6667;52.634;9.226;2023-07-29T19:29:46;2.05;;;1.20;;
13204;SDS011;6667;52.634;9.226;2023-07-29T19:32:13;1.05;;;0.95;;
13204;SDS011;6667;52.634;9.226;2023-07-29T19:34:43;1.65;;;1.23;;
13204;SDS011;6667;52.634;9.226;2023-07-29T19:37:15;0.95;;;0.95;;
13204;SDS011;6667;52.634;9.226;2023-07-29T19:39:46;1.20;;;1.10;;
13204;SDS011;6667;52.634;9.226;2023-07-29T19:42:13;0.80;;;0.80;;
13204;SDS011;6667;52.634;9.226;2023-07-29T19:44:41;1.20;;;1.08;;
13204;SDS011;6667;52.634;9.226;2023-07-29T19:47:09;2.22;;;1.13;;
13204;SDS011;6667;52.634;9.226;2023-07-29T19:49:37;2.40;;;0.95;;
13204;SDS011;6667;52.634;9.226;2023-07-29T19:52:09;1.40;;;1.27;;
13204;SDS011;6667;52.634;9.226;2023-07-29T19:54:43;1.65;;;1.13;;
13204;SDS011;6667;52.634;9.226;2023-07-29T19:57:13;2.13;;;0.90;;
13204;SDS011;6667;52.634;9.226;2023-07-29T19:59:41;1.20;;;1.10;;
13204;SDS011;6667;52.634;9.226;2023-07-29T20:02:09;2.53;;;1.20;;
13204;SDS011;6667;52.634;9.226;2023-07-29T20:04:38;1.00;;;1.00;;
13204;SDS011;6667;52.634;9.226;2023-07-29T20:07:17;1.20;;;1.10;;
13204;SDS011;6667;52.634;9.226;2023-07-29T20:09:57;2.08;;;1.10;;
13204;SDS011;6667;52.634;9.226;2023-07-29T20:12:28;0.85;;;0.82;;
13204;SDS011;6667;52.634;9.226;2023-07-29T20:14:56;2.22;;;1.20;;
13204;SDS011;6667;52.634;9.226;2023-07-29T20:17:26;1.63;;;1.30;;
13204;SDS011;6667;52.634;9.226;2023-07-29T20:20:00;1.30;;;1.13;;
13204;SDS011;6667;52.634;9.226;2023-07-29T20:22:29;2.92;;;1.20;;
13204;SDS011;6667;52.634;9.226;2023-07-29T20:24:56;1.48;;;1.38;;
13204;SDS011;6667;52.634;9.226;2023-07-29T20:27:23;2.20;;;1.35;;
13204;SDS011;6667;52.634;9.226;2023-07-29T20:29:51;2.00;;;1.27;;
13204;SDS011;6667;52.634;9.226;2023-07-29T20:32:19;1.30;;;1.20;;
13204;SDS011;6667;52.634;9.226;2023-07-29T20:34:50;2.28;;;1.00;;
13204;SDS011;6667;52.634;9.226;2023-07-29T20:37:18;2.45;;;1.05;;
13204;SDS011;6667;52.634;9.226;2023-07-29T20:39:47;2.22;;;1.30;;
13204;SDS011;6667;52.634;9.226;2023-07-29T20:42:14;2.15;;;1.40;;
13204;SDS011;6667;52.634;9.226;2023-07-29T20:44:44;0.95;;;0.88;;
13204;SDS011;6667;52.634;9.226;2023-07-29T20:47:11;0.95;;;0.77;;
13204;SDS011;6667;52.634;9.226;2023-07-29T20:49:42;1.10;;;1.00;;
13204;SDS011;6667;52.634;9.226;2023-07-29T20:52:09;1.10;;;1.00;;
13204;SDS011;6667;52.634;9.226;2023-07-29T20:54:37;2.15;;;1.02;;
13204;SDS011;6667;52.634;9.226;2023-07-29T20:57:06;1.20;;;1.10;;
13204;SDS011;6667;52.634;9.226;2023-07-29T20:59:48;1.50;;;1.20;;
13204;SDS011;6667;52.634;9.226;2023-07-29T21:02:15;1.20;;;1.10;;
13204;SDS011;6667;52.634;9.226;2023-07-29T21:04:42;2.17;;;1.25;;
13204;SDS011;6667;52.634;9.226;2023-07-29T21:07:11;2.38;;;1.45;;
13204;SDS011;6667;52.634;9.226;2023-07-29T21:09:39;1.98;;;1.30;;
13204;SDS011;6667;52.634;9.226;2023-07-29T21:12:10;1.63;;;1.38;;
13204;SDS011;6667;52.634;9.226;2023-07-29T21:14:39;1.25;;;1.15;;
13204;SDS011;6667;52.634;9.226;2023-07-29T21:17:07;1.20;;;1.10;;
13204;SDS011;6667;52.634;9.226;2023-07-29T21:19:34;1.63;;;1.40;;
13204;SDS011;6667;52.634;9.226;2023-07-29T21:22:01;3.03;;;1.40;;
13204;SDS011;6667;52.634;9.226;2023-07-29T21:24:29;1.52;;;1.13;;
13204;SDS011;6667;52.634;9.226;2023-07-29T21:26:57;1.25;;;1.02;;
13204;SDS011;6667;52.634;9.226;2023-07-29T21:29:26;2.63;;;1.15;;
13204;SDS011;6667;52.634;9.226;2023-07-29T21:31:56;1.48;;;1.00;;
13204;SDS011;6667;52.634;9.226;2023-07-29T21:34:24;1.20;;;1.10;;
13204;SDS011;6667;52.634;9.226;2023-07-29T21:36:54;3.40;;;1.60;;
13204;SDS011;6667;52.634;9.226;2023-07-29T21:39:30;2.00;;;1.10;;
13204;SDS011;6667;52.634;9.226;2023-07-29T21:42:27;1.23;;;1.00;;
13204;SDS011;6667;52.634;9.226;2023-07-29T21:45:31;1.40;;;1.20;;
13204;SDS011;6667;52.634;9.226;2023-07-29T21:48:22;2.00;;;1.20;;
13204;SDS011;6667;52.634;9.226;2023-07-29T21:51:11;1.27;;;0.88;;
13204;SDS011;6667;52.634;9.226;2023-07-29T21:53:47;3.80;;;1.20;;
13204;SDS011;6667;52.634;9.226;2023-07-29T21:56:20;1.10;;;1.00;;
13204;SDS011;6667;52.634;9.226;2023-07-29T21:59:00;1.40;;;1.20;;
13204;SDS011;6667;52.634;9.226;2023-07-29T22:01:47;3.67;;;1.60;;
13204;SDS011;6667;52.634;9.226;2023-07-29T22:04:31;2.20;;;1.60;;
13204;SDS011;6667;52.634;9.226;2023-07-29T22:07:05;5.03;;;1.40;;
13204;SDS011;6667;52.634;9.226;2023-07-29T22:09:37;1.80;;;1.52;;
13204;SDS011;6667;52.634;9.226;2023-07-29T22:12:10;1.50;;;1.38;;
13204;SDS011;6667;52.634;9.226;2023-07-29T22:14:46;2.20;;;1.85;;
13204;SDS011;6667;52.634;9.226;2023-07-29T22:17:20;3.42;;;1.50;;
13204;SDS011;6667;52.634;9.226;2023-07-29T22:19:49;1.88;;;1.70;;
13204;SDS011;6667;52.634;9.226;2023-07-29T22:22:18;1.65;;;1.52;;
13204;SDS011;6667;52.634;9.226;2023-07-29T22:24:51;1.60;;;1.50;;
13204;SDS011;6667;52.634;9.226;2023-07-29T22:27:25;1.67;;;1.40;;
13204;SDS011;6667;52.634;9.226;2023-07-29T22:30:03;2.25;;;1.42;;
13204;SDS011;6667;52.634;9.226;2023-07-29T22:32:41;2.22;;;1.80;;
13204;SDS011;6667;52.634;9.226;2023-07-29T22:35:16;3.30;;;2.08;;
13204;SDS011;6667;52.634;9.226;2023-07-29T22:37:50;2.47;;;1.90;;
13204;SDS011;6667;52.634;9.226;2023-07-29T22:42:57;1.65;;;1.55;;
